sensor_id;sensor_type;location;lat;lon;timestamp;temperature;humidity
76239;SHT30;65043;48.392;-4.472;2024-03-23T00:55:34;11.10;63.11
76239;SHT30;65043;48.392;-4.472;2024-03-23T00:58:00;11.07;63.72
76239;SHT30;65043;48.392;-4.472;2024-03-23T01:00:25;11.11;63.62
76239;SHT30;65043;48.392;-4.472;2024-03-23T01:02:51;11.07;63.39
76239;SHT30;65043;48.392;-4.472;2024-03-23T01:05:16;11.06;63.03
76239;SHT30;65043;48.392;-4.472;2024-03-23T01:07:42;11.04;63.13
76239;SHT30;65043;48.392;-4.472;2024-03-23T01:10:07;11.04;63.44
76239;SHT30;65043;48.392;-4.472;2024-03-23T01:12:33;11.03;63.39
76239;SHT30;65043;48.392;-4.472;2024-03-23T01:14:59;11.04;63.61
76239;SHT30;65043;48.392;-4.472;2024-03-23T01:17:26;11.06;62.84
76239;SHT30;65043;48.392;-4.472;2024-03-23T01:19:52;11.03;61.69
76239;SHT30;65043;48.392;-4.472;2024-03-23T01:22:17;11.01;59.59
76239;SHT30;65043;48.392;-4.472;2024-03-23T01:24:43;10.96;58.99
76239;SHT30;65043;48.392;-4.472;2024-03-23T01:27:08;10.96;59.95
76239;SHT30;65043;48.392;-4.472;2024-03-23T01:29:34;10.97;60.36
76239;SHT30;65043;48.392;-4.472;2024-03-23T01:31:59;10.97;59.98
76239;SHT30;65043;48.392;-4.472;2024-03-23T01:34:25;10.97;60.17
76239;SHT30;65043;48.392;-4.472;2024-03-23T01:36:51;10.92;60.67
76239;SHT30;65043;48.392;-4.472;2024-03-23T01:39:17;10.90;60.99
76239;SHT30;65043;48.392;-4.472;2024-03-23T01:41:42;10.94;61.48
76239;SHT30;65043;48.392;-4.472;2024-03-23T01:44:08;10.92;62.12
76239;SHT30;65043;48.392;-4.472;2024-03-23T01:46:35;10.92;62.31
76239;SHT30;65043;48.392;-4.472;2024-03-23T01:49:02;10.92;62.60
76239;SHT30;65043;48.392;-4.472;2024-03-23T01:51:29;10.92;62.72
76239;SHT30;65043;48.392;-4.472;2024-03-23T01:53:56;10.92;62.97
76239;SHT30;65043;48.392;-4.472;2024-03-23T01:56:21;10.92;63.22
76239;SHT30;65043;48.392;-4.472;2024-03-23T01:58:47;10.89;63.39
76239;SHT30;65043;48.392;-4.472;2024-03-23T02:01:12;10.92;63.33
76239;SHT30;65043;48.392;-4.472;2024-03-23T02:03:38;10.87;63.66
76239;SHT30;65043;48.392;-4.472;2024-03-23T02:06:03;10.90;63.79
76239;SHT30;65043;48.392;-4.472;2024-03-23T02:08:30;10.84;63.75
76239;SHT30;65043;48.392;-4.472;2024-03-23T02:10:56;10.87;64.12
76239;SHT30;65043;48.392;-4.472;2024-03-23T02:13:21;10.84;64.00
76239;SHT30;65043;48.392;-4.472;2024-03-23T02:15:47;10.83;64.04
76239;SHT30;65043;48.392;-4.472;2024-03-23T02:18:13;10.84;64.53
76239;SHT30;65043;48.392;-4.472;2024-03-23T02:20:39;10.81;65.22
76239;SHT30;65043;48.392;-4.472;2024-03-23T02:23:05;10.86;65.49
76239;SHT30;65043;48.392;-4.472;2024-03-23T02:25:33;10.86;65.89
76239;SHT30;65043;48.392;-4.472;2024-03-23T02:27:59;10.84;65.75
76239;SHT30;65043;48.392;-4.472;2024-03-23T02:30:25;10.81;65.24
76239;SHT30;65043;48.392;-4.472;2024-03-23T02:32:51;10.80;65.16
76239;SHT30;65043;48.392;-4.472;2024-03-23T02:35:17;10.76;64.72
76239;SHT30;65043;48.392;-4.472;2024-03-23T02:37:42;10.73;64.51
76239;SHT30;65043;48.392;-4.472;2024-03-23T02:40:08;10.73;63.53
76239;SHT30;65043;48.392;-4.472;2024-03-23T02:42:33;10.70;62.46
76239;SHT30;65043;48.392;-4.472;2024-03-23T02:44:59;10.64;62.60
76239;SHT30;65043;48.392;-4.472;2024-03-23T02:47:25;10.69;62.31
76239;SHT30;65043;48.392;-4.472;2024-03-23T02:49:50;10.67;62.71
76239;SHT30;65043;48.392;-4.472;2024-03-23T02:52:16;10.67;62.42
76239;SHT30;65043;48.392;-4.472;2024-03-23T02:54:41;10.64;62.58
76239;SHT30;65043;48.392;-4.472;2024-03-23T02:57:10;10.69;62.52
76239;SHT30;65043;48.392;-4.472;2024-03-23T02:59:35;10.67;62.86
76239;SHT30;65043;48.392;-4.472;2024-03-23T03:02:01;10.64;63.03
76239;SHT30;65043;48.392;-4.472;2024-03-23T03:04:26;10.64;63.22
76239;SHT30;65043;48.392;-4.472;2024-03-23T03:06:52;10.66;63.77
76239;SHT30;65043;48.392;-4.472;2024-03-23T03:09:17;10.63;63.90
76239;SHT30;65043;48.392;-4.472;2024-03-23T03:11:42;10.67;64.16
76239;SHT30;65043;48.392;-4.472;2024-03-23T03:14:08;10.66;64.29
76239;SHT30;65043;48.392;-4.472;2024-03-23T03:16:33;10.66;64.17
76239;SHT30;65043;48.392;-4.472;2024-03-23T03:18:59;10.64;64.31
76239;SHT30;65043;48.392;-4.472;2024-03-23T03:21:24;10.63;63.98
76239;SHT30;65043;48.392;-4.472;2024-03-23T03:23:50;10.66;64.66
76239;SHT30;65043;48.392;-4.472;2024-03-23T03:26:16;10.66;64.94
76239;SHT30;65043;48.392;-4.472;2024-03-23T03:28:42;10.66;64.45
76239;SHT30;65043;48.392;-4.472;2024-03-23T03:31:08;10.64;64.28
76239;SHT30;65043;48.392;-4.472;2024-03-23T03:33:34;10.66;63.65
76239;SHT30;65043;48.392;-4.472;2024-03-23T03:35:59;10.62;62.49
76239;SHT30;65043;48.392;-4.472;2024-03-23T03:38:25;10.63;62.22
76239;SHT30;65043;48.392;-4.472;2024-03-23T03:40:50;10.57;61.72
76239;SHT30;65043;48.392;-4.472;2024-03-23T03:43:16;10.56;61.89
76239;SHT30;65043;48.392;-4.472;2024-03-23T03:45:41;10.59;62.21
76239;SHT30;65043;48.392;-4.472;2024-03-23T03:48:07;10.60;61.97
76239;SHT30;65043;48.392;-4.472;2024-03-23T03:50:33;10.56;62.44
76239;SHT30;65043;48.392;-4.472;2024-03-23T03:52:58;10.57;62.28
76239;SHT30;65043;48.392;-4.472;2024-03-23T03:55:24;10.53;62.70
76239;SHT30;65043;48.392;-4.472;2024-03-23T03:57:52;10.52;63.15
76239;SHT30;65043;48.392;-4.472;2024-03-23T04:00:18;10.50;63.28
76239;SHT30;65043;48.392;-4.472;2024-03-23T04:02:43;10.49;63.50
76239;SHT30;65043;48.392;-4.472;2024-03-23T04:05:09;10.52;63.96
76239;SHT30;65043;48.392;-4.472;2024-03-23T04:07:34;10.53;63.94
76239;SHT30;65043;48.392;-4.472;2024-03-23T04:10:00;10.52;63.91
76239;SHT30;65043;48.392;-4.472;2024-03-23T04:12:25;10.52;63.88
76239;SHT30;65043;48.392;-4.472;2024-03-23T04:14:51;10.48;63.86
76239;SHT30;65043;48.392;-4.472;2024-03-23T04:17:16;10.46;63.99
76239;SHT30;65043;48.392;-4.472;2024-03-23T04:19:42;10.49;64.15
76239;SHT30;65043;48.392;-4.472;2024-03-23T04:22:07;10.48;64.21
76239;SHT30;65043;48.392;-4.472;2024-03-23T04:24:33;10.46;63.87
76239;SHT30;65043;48.392;-4.472;2024-03-23T04:26:59;10.42;63.95
76239;SHT30;65043;48.392;-4.472;2024-03-23T04:29:24;10.46;63.84
76239;SHT30;65043;48.392;-4.472;2024-03-23T04:31:52;10.48;64.01
76239;SHT30;65043;48.392;-4.472;2024-03-23T04:34:17;10.46;63.90
76239;SHT30;65043;48.392;-4.472;2024-03-23T04:36:42;10.46;63.82
76239;SHT30;65043;48.392;-4.472;2024-03-23T04:39:08;10.45;63.91
76239;SHT30;65043;48.392;-4.472;2024-03-23T04:41:34;10.42;63.97
76239;SHT30;65043;48.392;-4.472;2024-03-23T04:44:00;10.48;64.29
76239;SHT30;65043;48.392;-4.472;2024-03-23T04:46:26;10.43;64.10
76239;SHT30;65043;48.392;-4.472;2024-03-23T04:48:51;10.43;64.23
76239;SHT30;65043;48.392;-4.472;2024-03-23T04:51:23;10.41;64.52
76239;SHT30;65043;48.392;-4.472;2024-03-23T04:53:49;10.49;64.49
76239;SHT30;65043;48.392;-4.472;2024-03-23T04:56:15;10.46;64.69
76239;SHT30;65043;48.392;-4.472;2024-03-23T04:58:42;10.46;64.86
76239;SHT30;65043;48.392;-4.472;2024-03-23T05:01:08;10.46;64.79
76239;SHT30;65043;48.392;-4.472;2024-03-23T05:03:34;10.46;65.01
76239;SHT30;65043;48.392;-4.472;2024-03-23T05:05:59;10.46;65.14
76239;SHT30;65043;48.392;-4.472;2024-03-23T05:08:25;10.45;65.17
76239;SHT30;65043;48.392;-4.472;2024-03-23T05:10:51;10.49;65.11
76239;SHT30;65043;48.392;-4.472;2024-03-23T05:13:16;10.49;65.26
76239;SHT30;65043;48.392;-4.472;2024-03-23T05:15:42;10.52;65.33
76239;SHT30;65043;48.392;-4.472;2024-03-23T05:18:10;10.52;65.23
76239;SHT30;65043;48.392;-4.472;2024-03-23T05:20:35;10.52;65.11
76239;SHT30;65043;48.392;-4.472;2024-03-23T05:23:01;10.55;65.17
76239;SHT30;65043;48.392;-4.472;2024-03-23T05:25:26;10.53;64.98
76239;SHT30;65043;48.392;-4.472;2024-03-23T05:27:52;10.53;65.21
76239;SHT30;65043;48.392;-4.472;2024-03-23T05:30:17;10.52;64.88
76239;SHT30;65043;48.392;-4.472;2024-03-23T05:32:42;10.52;65.09
76239;SHT30;65043;48.392;-4.472;2024-03-23T05:35:09;10.49;65.06
76239;SHT30;65043;48.392;-4.472;2024-03-23T05:37:35;10.49;64.63
76239;SHT30;65043;48.392;-4.472;2024-03-23T05:40:01;10.50;64.57
76239;SHT30;65043;48.392;-4.472;2024-03-23T05:42:26;10.52;64.60
76239;SHT30;65043;48.392;-4.472;2024-03-23T05:44:52;10.49;64.12
76239;SHT30;65043;48.392;-4.472;2024-03-23T05:47:17;10.50;63.62
76239;SHT30;65043;48.392;-4.472;2024-03-23T05:49:43;10.50;63.49
76239;SHT30;65043;48.392;-4.472;2024-03-23T05:52:09;10.50;63.20
76239;SHT30;65043;48.392;-4.472;2024-03-23T05:54:38;10.50;63.24
76239;SHT30;65043;48.392;-4.472;2024-03-23T05:57:04;10.53;63.18
76239;SHT30;65043;48.392;-4.472;2024-03-23T05:59:29;10.50;63.26
76239;SHT30;65043;48.392;-4.472;2024-03-23T06:01:55;10.48;62.67
76239;SHT30;65043;48.392;-4.472;2024-03-23T06:04:21;10.45;63.12
76239;SHT30;65043;48.392;-4.472;2024-03-23T06:06:49;10.46;62.84
76239;SHT30;65043;48.392;-4.472;2024-03-23T06:09:14;10.42;63.03
76239;SHT30;65043;48.392;-4.472;2024-03-23T06:11:40;10.45;63.24
76239;SHT30;65043;48.392;-4.472;2024-03-23T06:14:05;10.45;63.31
76239;SHT30;65043;48.392;-4.472;2024-03-23T06:16:31;10.50;63.65
76239;SHT30;65043;48.392;-4.472;2024-03-23T06:18:56;10.50;63.90
76239;SHT30;65043;48.392;-4.472;2024-03-23T06:21:22;10.50;63.80
76239;SHT30;65043;48.392;-4.472;2024-03-23T06:23:51;10.49;63.75
76239;SHT30;65043;48.392;-4.472;2024-03-23T06:26:18;10.48;63.65
76239;SHT30;65043;48.392;-4.472;2024-03-23T06:28:44;10.49;63.76
76239;SHT30;65043;48.392;-4.472;2024-03-23T06:31:10;10.49;63.96
76239;SHT30;65043;48.392;-4.472;2024-03-23T06:33:35;10.45;64.14
76239;SHT30;65043;48.392;-4.472;2024-03-23T06:36:01;10.45;64.38
76239;SHT30;65043;48.392;-4.472;2024-03-23T06:38:28;10.46;64.79
76239;SHT30;65043;48.392;-4.472;2024-03-23T06:40:54;10.43;65.02
76239;SHT30;65043;48.392;-4.472;2024-03-23T06:43:19;10.38;65.28
76239;SHT30;65043;48.392;-4.472;2024-03-23T06:45:52;10.41;65.64
76239;SHT30;65043;48.392;-4.472;2024-03-23T06:48:18;10.41;65.64
76239;SHT30;65043;48.392;-4.472;2024-03-23T06:50:44;10.39;65.46
76239;SHT30;65043;48.392;-4.472;2024-03-23T06:53:11;10.38;65.41
76239;SHT30;65043;48.392;-4.472;2024-03-23T06:55:37;10.43;65.46
76239;SHT30;65043;48.392;-4.472;2024-03-23T06:58:05;10.43;65.29
76239;SHT30;65043;48.392;-4.472;2024-03-23T07:00:31;10.45;65.24
76239;SHT30;65043;48.392;-4.472;2024-03-23T07:03:00;10.43;64.72
76239;SHT30;65043;48.392;-4.472;2024-03-23T07:05:25;10.39;64.82
76239;SHT30;65043;48.392;-4.472;2024-03-23T07:07:51;10.41;64.88
76239;SHT30;65043;48.392;-4.472;2024-03-23T07:10:17;10.43;64.84
76239;SHT30;65043;48.392;-4.472;2024-03-23T07:12:43;10.45;64.90
76239;SHT30;65043;48.392;-4.472;2024-03-23T07:15:08;10.46;64.84
76239;SHT30;65043;48.392;-4.472;2024-03-23T07:17:34;10.48;64.63
76239;SHT30;65043;48.392;-4.472;2024-03-23T07:20:01;10.48;65.02
76239;SHT30;65043;48.392;-4.472;2024-03-23T07:22:32;10.50;64.83
76239;SHT30;65043;48.392;-4.472;2024-03-23T07:25:02;10.48;65.06
76239;SHT30;65043;48.392;-4.472;2024-03-23T07:27:28;10.50;65.11
76239;SHT30;65043;48.392;-4.472;2024-03-23T07:29:54;10.50;65.14
76239;SHT30;65043;48.392;-4.472;2024-03-23T07:32:20;10.55;65.21
76239;SHT30;65043;48.392;-4.472;2024-03-23T07:34:46;10.53;65.44
76239;SHT30;65043;48.392;-4.472;2024-03-23T07:37:11;10.59;65.63
76239;SHT30;65043;48.392;-4.472;2024-03-23T07:39:37;10.59;65.45
76239;SHT30;65043;48.392;-4.472;2024-03-23T07:42:02;10.60;65.32
76239;SHT30;65043;48.392;-4.472;2024-03-23T07:44:28;10.63;65.51
76239;SHT30;65043;48.392;-4.472;2024-03-23T07:46:53;10.67;65.07
76239;SHT30;65043;48.392;-4.472;2024-03-23T07:49:19;10.67;64.96
76239;SHT30;65043;48.392;-4.472;2024-03-23T07:51:44;10.70;64.41
76239;SHT30;65043;48.392;-4.472;2024-03-23T07:54:10;10.76;64.44
76239;SHT30;65043;48.392;-4.472;2024-03-23T07:56:35;10.80;64.12
76239;SHT30;65043;48.392;-4.472;2024-03-23T07:59:01;10.79;63.80
76239;SHT30;65043;48.392;-4.472;2024-03-23T08:01:28;10.84;64.00
76239;SHT30;65043;48.392;-4.472;2024-03-23T08:03:54;10.89;64.16
76239;SHT30;65043;48.392;-4.472;2024-03-23T08:06:20;10.94;64.03
76239;SHT30;65043;48.392;-4.472;2024-03-23T08:08:48;10.96;65.05
76239;SHT30;65043;48.392;-4.472;2024-03-23T08:11:14;10.93;65.20
76239;SHT30;65043;48.392;-4.472;2024-03-23T08:13:40;10.96;65.89
76239;SHT30;65043;48.392;-4.472;2024-03-23T08:16:06;11.00;65.70
76239;SHT30;65043;48.392;-4.472;2024-03-23T08:18:32;10.94;65.61
76239;SHT30;65043;48.392;-4.472;2024-03-23T08:21:05;10.97;65.07
76239;SHT30;65043;48.392;-4.472;2024-03-23T08:23:32;11.00;64.61
76239;SHT30;65043;48.392;-4.472;2024-03-23T08:26:07;11.00;64.16
76239;SHT30;65043;48.392;-4.472;2024-03-23T08:28:34;10.99;63.49
76239;SHT30;65043;48.392;-4.472;2024-03-23T08:31:10;10.93;63.76
76239;SHT30;65043;48.392;-4.472;2024-03-23T08:33:36;10.97;63.26
76239;SHT30;65043;48.392;-4.472;2024-03-23T08:36:04;10.94;63.52
76239;SHT30;65043;48.392;-4.472;2024-03-23T08:38:30;10.90;63.38
76239;SHT30;65043;48.392;-4.472;2024-03-23T08:43:30;11.04;63.86
76239;SHT30;65043;48.392;-4.472;2024-03-23T08:46:11;11.04;63.79
76239;SHT30;65043;48.392;-4.472;2024-03-23T08:48:46;11.10;63.63
76239;SHT30;65043;48.392;-4.472;2024-03-23T08:51:15;11.11;63.75
76239;SHT30;65043;48.392;-4.472;2024-03-23T08:53:41;11.13;64.01
76239;SHT30;65043;48.392;-4.472;2024-03-23T08:56:07;11.15;64.29
76239;SHT30;65043;48.392;-4.472;2024-03-23T08:58:34;11.23;64.64
76239;SHT30;65043;48.392;-4.472;2024-03-23T09:01:06;11.30;64.95
76239;SHT30;65043;48.392;-4.472;2024-03-23T09:03:31;11.36;64.18
76239;SHT30;65043;48.392;-4.472;2024-03-23T09:05:57;11.36;64.24
76239;SHT30;65043;48.392;-4.472;2024-03-23T09:08:24;11.35;64.52
76239;SHT30;65043;48.392;-4.472;2024-03-23T09:10:50;11.35;66.74
76239;SHT30;65043;48.392;-4.472;2024-03-23T09:13:15;11.30;67.57
76239;SHT30;65043;48.392;-4.472;2024-03-23T09:15:49;11.24;66.94
76239;SHT30;65043;48.392;-4.472;2024-03-23T09:18:15;11.21;66.84
76239;SHT30;65043;48.392;-4.472;2024-03-23T09:20:40;11.13;66.89
76239;SHT30;65043;48.392;-4.472;2024-03-23T09:23:06;11.10;66.30
76239;SHT30;65043;48.392;-4.472;2024-03-23T09:25:31;11.06;66.56
76239;SHT30;65043;48.392;-4.472;2024-03-23T09:27:58;11.10;67.11
76239;SHT30;65043;48.392;-4.472;2024-03-23T09:30:23;11.11;67.13
76239;SHT30;65043;48.392;-4.472;2024-03-23T09:32:49;11.13;67.01
76239;SHT30;65043;48.392;-4.472;2024-03-23T09:35:14;11.15;66.32
76239;SHT30;65043;48.392;-4.472;2024-03-23T09:37:40;11.21;65.81
76239;SHT30;65043;48.392;-4.472;2024-03-23T09:40:09;11.23;64.67
76239;SHT30;65043;48.392;-4.472;2024-03-23T09:42:35;11.27;64.51
76239;SHT30;65043;48.392;-4.472;2024-03-23T09:45:01;11.30;64.24
76239;SHT30;65043;48.392;-4.472;2024-03-23T09:47:27;11.30;64.09
76239;SHT30;65043;48.392;-4.472;2024-03-23T09:49:52;11.39;64.49
76239;SHT30;65043;48.392;-4.472;2024-03-23T09:52:18;11.45;63.95
76239;SHT30;65043;48.392;-4.472;2024-03-23T09:54:44;11.46;62.78
76239;SHT30;65043;48.392;-4.472;2024-03-23T09:57:10;11.50;63.00
76239;SHT30;65043;48.392;-4.472;2024-03-23T09:59:35;11.50;62.08
76239;SHT30;65043;48.392;-4.472;2024-03-23T10:02:01;11.54;62.58
76239;SHT30;65043;48.392;-4.472;2024-03-23T10:04:36;11.52;63.45
76239;SHT30;65043;48.392;-4.472;2024-03-23T10:07:29;11.57;63.69
76239;SHT30;65043;48.392;-4.472;2024-03-23T10:09:55;11.59;62.89
76239;SHT30;65043;48.392;-4.472;2024-03-23T10:12:21;11.61;62.41
76239;SHT30;65043;48.392;-4.472;2024-03-23T10:14:47;11.65;62.45
76239;SHT30;65043;48.392;-4.472;2024-03-23T10:19:40;11.81;62.83
76239;SHT30;65043;48.392;-4.472;2024-03-23T10:22:07;11.82;62.60
76239;SHT30;65043;48.392;-4.472;2024-03-23T10:24:32;11.73;63.77
76239;SHT30;65043;48.392;-4.472;2024-03-23T10:26:58;11.71;64.33
76239;SHT30;65043;48.392;-4.472;2024-03-23T10:29:23;11.66;64.56
76239;SHT30;65043;48.392;-4.472;2024-03-23T10:31:51;11.68;63.95
76239;SHT30;65043;48.392;-4.472;2024-03-23T10:34:16;11.72;63.83
76239;SHT30;65043;48.392;-4.472;2024-03-23T10:36:50;11.72;63.80
76239;SHT30;65043;48.392;-4.472;2024-03-23T10:39:17;11.73;64.31
76239;SHT30;65043;48.392;-4.472;2024-03-23T10:41:44;11.72;63.71
76239;SHT30;65043;48.392;-4.472;2024-03-23T10:44:11;11.75;64.23
76239;SHT30;65043;48.392;-4.472;2024-03-23T10:46:37;11.75;63.49
76239;SHT30;65043;48.392;-4.472;2024-03-23T10:49:03;11.82;63.54
76239;SHT30;65043;48.392;-4.472;2024-03-23T10:51:29;11.85;62.73
76239;SHT30;65043;48.392;-4.472;2024-03-23T10:53:55;11.96;63.30
76239;SHT30;65043;48.392;-4.472;2024-03-23T10:56:22;12.04;62.58
76239;SHT30;65043;48.392;-4.472;2024-03-23T10:58:48;12.14;61.76
76239;SHT30;65043;48.392;-4.472;2024-03-23T11:01:15;12.22;62.15
76239;SHT30;65043;48.392;-4.472;2024-03-23T11:03:46;12.24;61.56
76239;SHT30;65043;48.392;-4.472;2024-03-23T11:06:38;12.10;61.51
76239;SHT30;65043;48.392;-4.472;2024-03-23T11:09:14;12.07;60.91
76239;SHT30;65043;48.392;-4.472;2024-03-23T11:11:49;12.06;59.97
76239;SHT30;65043;48.392;-4.472;2024-03-23T11:14:22;12.07;60.64
76239;SHT30;65043;48.392;-4.472;2024-03-23T11:17:08;12.17;62.13
76239;SHT30;65043;48.392;-4.472;2024-03-23T11:19:36;12.20;61.98
76239;SHT30;65043;48.392;-4.472;2024-03-23T11:22:02;12.33;62.86
76239;SHT30;65043;48.392;-4.472;2024-03-23T11:24:28;12.38;62.46
76239;SHT30;65043;48.392;-4.472;2024-03-23T11:26:54;12.27;66.80
76239;SHT30;65043;48.392;-4.472;2024-03-23T11:29:20;12.09;68.43
76239;SHT30;65043;48.392;-4.472;2024-03-23T11:31:52;11.94;68.98
76239;SHT30;65043;48.392;-4.472;2024-03-23T11:34:19;11.93;69.33
76239;SHT30;65043;48.392;-4.472;2024-03-23T11:36:46;11.89;68.59
76239;SHT30;65043;48.392;-4.472;2024-03-23T11:39:13;11.94;69.29
76239;SHT30;65043;48.392;-4.472;2024-03-23T11:42:05;12.03;69.73
76239;SHT30;65043;48.392;-4.472;2024-03-23T11:44:30;12.12;69.26
76239;SHT30;65043;48.392;-4.472;2024-03-23T11:47:07;12.26;69.61
76239;SHT30;65043;48.392;-4.472;2024-03-23T11:49:33;12.20;67.55
76239;SHT30;65043;48.392;-4.472;2024-03-23T11:52:00;12.13;67.85
76239;SHT30;65043;48.392;-4.472;2024-03-23T11:54:26;12.12;68.49
76239;SHT30;65043;48.392;-4.472;2024-03-23T11:56:59;12.10;68.69
76239;SHT30;65043;48.392;-4.472;2024-03-23T11:59:38;12.09;68.83
76239;SHT30;65043;48.392;-4.472;2024-03-23T12:02:11;12.14;68.29
76239;SHT30;65043;48.392;-4.472;2024-03-23T12:04:40;12.24;69.32
76239;SHT30;65043;48.392;-4.472;2024-03-23T12:07:21;12.37;68.69
76239;SHT30;65043;48.392;-4.472;2024-03-23T12:10:04;12.48;68.19
76239;SHT30;65043;48.392;-4.472;2024-03-23T12:12:31;12.61;67.89
76239;SHT30;65043;48.392;-4.472;2024-03-23T12:15:07;12.77;68.04
76239;SHT30;65043;48.392;-4.472;2024-03-23T12:17:34;12.74;66.29
76239;SHT30;65043;48.392;-4.472;2024-03-23T12:20:00;12.57;67.70
76239;SHT30;65043;48.392;-4.472;2024-03-23T12:22:26;12.43;68.21
76239;SHT30;65043;48.392;-4.472;2024-03-23T12:24:52;12.34;68.01
76239;SHT30;65043;48.392;-4.472;2024-03-23T12:27:18;12.26;68.00
76239;SHT30;65043;48.392;-4.472;2024-03-23T12:29:43;12.16;67.25
76239;SHT30;65043;48.392;-4.472;2024-03-23T12:32:11;12.27;67.91
76239;SHT30;65043;48.392;-4.472;2024-03-23T12:34:37;12.29;67.24
76239;SHT30;65043;48.392;-4.472;2024-03-23T12:37:03;12.38;67.49
76239;SHT30;65043;48.392;-4.472;2024-03-23T12:39:29;12.54;67.69
76239;SHT30;65043;48.392;-4.472;2024-03-23T12:41:54;12.61;65.83
76239;SHT30;65043;48.392;-4.472;2024-03-23T12:44:20;12.75;66.07
76239;SHT30;65043;48.392;-4.472;2024-03-23T12:46:46;12.84;64.75
76239;SHT30;65043;48.392;-4.472;2024-03-23T12:49:12;12.89;64.69
76239;SHT30;65043;48.392;-4.472;2024-03-23T12:51:37;12.89;64.69
76239;SHT30;65043;48.392;-4.472;2024-03-23T12:54:03;12.92;64.43
76239;SHT30;65043;48.392;-4.472;2024-03-23T12:56:29;13.11;65.02
76239;SHT30;65043;48.392;-4.472;2024-03-23T12:58:55;13.15;64.99
76239;SHT30;65043;48.392;-4.472;2024-03-23T13:01:23;13.36;64.34
76239;SHT30;65043;48.392;-4.472;2024-03-23T13:03:49;13.39;64.36
76239;SHT30;65043;48.392;-4.472;2024-03-23T13:06:15;13.53;64.45
76239;SHT30;65043;48.392;-4.472;2024-03-23T13:08:40;13.57;61.33
76239;SHT30;65043;48.392;-4.472;2024-03-23T13:11:07;13.50;61.03
76239;SHT30;65043;48.392;-4.472;2024-03-23T13:13:34;13.49;59.54
76239;SHT30;65043;48.392;-4.472;2024-03-23T13:16:00;13.49;59.55
76239;SHT30;65043;48.392;-4.472;2024-03-23T13:18:25;13.49;59.75
76239;SHT30;65043;48.392;-4.472;2024-03-23T13:20:51;13.47;59.22
76239;SHT30;65043;48.392;-4.472;2024-03-23T13:23:17;13.49;59.85
76239;SHT30;65043;48.392;-4.472;2024-03-23T13:25:50;13.40;59.02
76239;SHT30;65043;48.392;-4.472;2024-03-23T13:28:15;13.42;60.74
76239;SHT30;65043;48.392;-4.472;2024-03-23T13:30:52;13.54;61.03
76239;SHT30;65043;48.392;-4.472;2024-03-23T13:33:18;13.56;59.53
76239;SHT30;65043;48.392;-4.472;2024-03-23T13:35:53;13.46;60.34
76239;SHT30;65043;48.392;-4.472;2024-03-23T13:38:19;13.54;60.19
76239;SHT30;65043;48.392;-4.472;2024-03-23T13:43:16;13.46;59.74
76239;SHT30;65043;48.392;-4.472;2024-03-23T13:45:42;13.33;60.24
76239;SHT30;65043;48.392;-4.472;2024-03-23T13:48:07;13.47;60.18
76239;SHT30;65043;48.392;-4.472;2024-03-23T13:50:33;13.44;60.26
76239;SHT30;65043;48.392;-4.472;2024-03-23T13:52:59;13.42;60.67
76239;SHT30;65043;48.392;-4.472;2024-03-23T13:55:24;13.43;60.41
76239;SHT30;65043;48.392;-4.472;2024-03-23T13:57:50;13.38;61.33
76239;SHT30;65043;48.392;-4.472;2024-03-23T14:00:16;13.46;61.62
76239;SHT30;65043;48.392;-4.472;2024-03-23T14:02:43;13.69;61.29
76239;SHT30;65043;48.392;-4.472;2024-03-23T14:05:09;13.82;61.13
76239;SHT30;65043;48.392;-4.472;2024-03-23T14:07:34;13.85;61.35
76239;SHT30;65043;48.392;-4.472;2024-03-23T14:10:04;13.71;60.27
76239;SHT30;65043;48.392;-4.472;2024-03-23T14:12:31;13.60;60.68
76239;SHT30;65043;48.392;-4.472;2024-03-23T14:14:57;13.70;61.05
76239;SHT30;65043;48.392;-4.472;2024-03-23T14:17:22;13.87;59.62
76239;SHT30;65043;48.392;-4.472;2024-03-23T14:19:48;13.94;59.28
76239;SHT30;65043;48.392;-4.472;2024-03-23T14:22:14;13.97;58.51
76239;SHT30;65043;48.392;-4.472;2024-03-23T14:24:39;13.84;58.69
76239;SHT30;65043;48.392;-4.472;2024-03-23T14:27:05;13.94;59.19
76239;SHT30;65043;48.392;-4.472;2024-03-23T14:29:33;14.17;58.45
76239;SHT30;65043;48.392;-4.472;2024-03-23T14:31:59;14.41;58.05
76239;SHT30;65043;48.392;-4.472;2024-03-23T14:34:26;14.60;56.91
76239;SHT30;65043;48.392;-4.472;2024-03-23T14:36:53;14.66;56.15
76239;SHT30;65043;48.392;-4.472;2024-03-23T14:39:23;14.84;55.72
76239;SHT30;65043;48.392;-4.472;2024-03-23T14:41:50;14.77;55.40
76239;SHT30;65043;48.392;-4.472;2024-03-23T14:44:15;14.81;56.70
76239;SHT30;65043;48.392;-4.472;2024-03-23T14:46:41;14.77;57.09
76239;SHT30;65043;48.392;-4.472;2024-03-23T14:49:06;14.80;57.62
76239;SHT30;65043;48.392;-4.472;2024-03-23T14:51:32;14.72;57.66
76239;SHT30;65043;48.392;-4.472;2024-03-23T14:53:58;14.58;58.27
76239;SHT30;65043;48.392;-4.472;2024-03-23T14:56:24;14.48;58.74
76239;SHT30;65043;48.392;-4.472;2024-03-23T14:58:53;14.29;58.19
76239;SHT30;65043;48.392;-4.472;2024-03-23T15:01:19;14.46;58.06
76239;SHT30;65043;48.392;-4.472;2024-03-23T15:03:44;14.31;57.62
76239;SHT30;65043;48.392;-4.472;2024-03-23T15:06:10;14.48;57.35
76239;SHT30;65043;48.392;-4.472;2024-03-23T15:08:36;14.58;56.04
76239;SHT30;65043;48.392;-4.472;2024-03-23T15:11:06;14.42;56.32
76239;SHT30;65043;48.392;-4.472;2024-03-23T15:13:35;14.66;55.80
76239;SHT30;65043;48.392;-4.472;2024-03-23T15:16:01;14.50;55.26
76239;SHT30;65043;48.392;-4.472;2024-03-23T15:18:29;14.28;56.01
76239;SHT30;65043;48.392;-4.472;2024-03-23T15:20:56;14.14;56.03
76239;SHT30;65043;48.392;-4.472;2024-03-23T15:23:22;13.92;56.61
76239;SHT30;65043;48.392;-4.472;2024-03-23T15:25:57;13.75;57.04
76239;SHT30;65043;48.392;-4.472;2024-03-23T15:28:23;13.71;57.94
76239;SHT30;65043;48.392;-4.472;2024-03-23T15:30:49;13.60;57.95
76239;SHT30;65043;48.392;-4.472;2024-03-23T15:33:14;13.50;58.98
76239;SHT30;65043;48.392;-4.472;2024-03-23T15:35:40;13.60;59.09
76239;SHT30;65043;48.392;-4.472;2024-03-23T15:38:05;13.46;59.53
76239;SHT30;65043;48.392;-4.472;2024-03-23T15:40:30;13.42;60.00
76239;SHT30;65043;48.392;-4.472;2024-03-23T15:42:56;13.43;59.99
76239;SHT30;65043;48.392;-4.472;2024-03-23T15:45:21;13.42;60.33
76239;SHT30;65043;48.392;-4.472;2024-03-23T15:47:47;13.35;60.55
76239;SHT30;65043;48.392;-4.472;2024-03-23T15:50:13;13.30;62.53
76239;SHT30;65043;48.392;-4.472;2024-03-23T15:52:38;13.18;63.79
76239;SHT30;65043;48.392;-4.472;2024-03-23T15:55:04;13.18;64.48
76239;SHT30;65043;48.392;-4.472;2024-03-23T15:57:33;13.06;65.37
76239;SHT30;65043;48.392;-4.472;2024-03-23T15:59:59;13.02;66.80
76239;SHT30;65043;48.392;-4.472;2024-03-23T16:02:25;12.89;66.92
76239;SHT30;65043;48.392;-4.472;2024-03-23T16:04:52;12.81;66.76
76239;SHT30;65043;48.392;-4.472;2024-03-23T16:07:18;12.85;66.88
76239;SHT30;65043;48.392;-4.472;2024-03-23T16:09:43;12.85;67.41
76239;SHT30;65043;48.392;-4.472;2024-03-23T16:12:09;12.81;67.54
76239;SHT30;65043;48.392;-4.472;2024-03-23T16:14:34;12.77;67.79